Time;durP1;ratioP1;P1;durP2;ratioP2;P2;SDS_P1;SDS_P2;PMS_P1;PMS_P2;Temp;Humidity;BMP_temperature;BMP_pressure;BME280_temperature;BME280_humidity;BME280_pressure;Samples;Min_cycle;Max_cycle;Signal;HPM_P1;HPM_P2
2021/12/03 00:02:15;;;;;;;16.90;11.98;;;;;;;0.26;66.06;99402.47;10554962;28;20043;-69
2021/12/03 00:07:17;;;;;;;13.40;10.63;;;;;;;0.18;66.17;99408.72;10542323;28;20170;-69
2021/12/03 00:12:18;;;;;;;10.95;9.00;;;;;;;0.07;66.46;99416.72;10547259;28;20070;-69
2021/12/03 00:17:20;;;;;;;13.38;9.95;;;;;;;0.08;66.86;99422.66;10514303;28;20054;-69
2021/12/03 00:22:22;;;;;;;14.52;10.25;;;;;;;0.14;66.36;99430.22;10514795;28;20577;-69
2021/12/03 00:27:24;;;;;;;12.43;9.98;;;;;;;0.10;66.36;99426.91;10534690;28;20062;-69
2021/12/03 00:32:26;;;;;;;18.58;12.05;;;;;;;0.03;66.42;99434.81;10535288;28;20499;-69
2021/12/03 00:37:28;;;;;;;24.90;13.70;;;;;;;0.02;66.12;99438.25;10550687;28;20080;-70
2021/12/03 00:42:30;;;;;;;19.38;13.52;;;;;;;0.00;66.19;99435.72;10529279;28;20138;-69
2021/12/03 00:47:31;;;;;;;18.67;12.27;;;;;;;-0.00;66.33;99429.72;10528918;28;20048;-70
2021/12/03 00:52:34;;;;;;;19.48;13.43;;;;;;;-0.11;66.62;99434.31;10524205;28;20514;-69
2021/12/03 00:57:36;;;;;;;15.82;11.57;;;;;;;-0.13;66.75;99434.38;10554552;28;20138;-70
2021/12/03 01:02:38;;;;;;;15.07;10.93;;;;;;;-0.22;67.00;99441.44;10512409;28;20048;-69
2021/12/03 01:07:40;;;;;;;24.50;15.80;;;;;;;-0.24;66.96;99433.75;10543052;28;20143;-70
2021/12/03 01:12:42;;;;;;;16.52;12.70;;;;;;;-0.27;66.99;99439.00;10512248;28;20408;-70
2021/12/03 01:17:44;;;;;;;23.30;14.30;;;;;;;-0.40;67.27;99451.28;10509660;28;20064;-70
2021/12/03 01:22:49;;;;;;;17.25;10.82;;;;;;;-0.49;67.38;99456.63;10511845;28;20377;-69
2021/12/03 01:27:52;;;;;;;18.67;11.48;;;;;;;-0.60;67.42;99453.47;10533042;28;20061;-69
2021/12/03 01:32:55;;;;;;;16.17;12.70;;;;;;;-0.67;67.51;99446.75;10519931;28;20056;-69
2021/12/03 01:37:57;;;;;;;17.63;12.10;;;;;;;-0.79;67.83;99441.91;10510945;28;20325;-69
2021/12/03 01:42:58;;;;;;;15.55;12.55;;;;;;;-0.82;67.98;99448.81;10510548;28;20044;-69
2021/12/03 01:48:02;;;;;;;16.80;12.85;;;;;;;-0.82;68.10;99465.06;10529433;28;20062;-68
2021/12/03 01:53:04;;;;;;;17.75;12.93;;;;;;;-0.78;67.89;99482.06;10522060;28;20486;-69
2021/12/03 01:58:07;;;;;;;18.75;12.93;;;;;;;-0.79;68.08;99487.25;10526113;28;20052;-69
2021/12/03 02:03:13;;;;;;;16.90;13.23;;;;;;;-0.74;68.31;99481.13;10510756;28;20127;-69
2021/12/03 02:08:15;;;;;;;17.33;12.75;;;;;;;-0.78;68.09;99496.66;10509673;28;20052;-69
2021/12/03 02:13:18;;;;;;;17.88;12.77;;;;;;;-0.84;67.87;99500.19;10510113;28;20130;-69
2021/12/03 02:18:20;;;;;;;19.23;13.30;;;;;;;-0.86;68.23;99501.09;10509156;28;20060;-69
2021/12/03 02:23:23;;;;;;;20.35;13.98;;;;;;;-0.93;68.10;99504.66;10510164;28;20052;-69
2021/12/03 02:28:28;;;;;;;19.58;12.32;;;;;;;-0.87;68.25;99505.38;10533011;28;20055;-69
2021/12/03 02:33:31;;;;;;;21.45;15.35;;;;;;;-0.75;68.28;99510.28;10514260;28;20048;-69
2021/12/03 02:38:33;;;;;;;29.58;22.88;;;;;;;-0.51;68.01;99508.88;10535011;28;20510;-69
2021/12/03 02:43:34;;;;;;;26.60;18.65;;;;;;;-0.32;67.86;99511.03;10509819;28;20043;-69
2021/12/03 02:48:36;;;;;;;19.27;14.23;;;;;;;-0.16;67.60;99521.81;10509376;28;20518;-69
2021/12/03 02:53:38;;;;;;;22.23;15.02;;;;;;;0.06;67.48;99519.56;10509463;28;20059;-69
2021/12/03 02:58:40;;;;;;;25.60;16.98;;;;;;;0.11;66.97;99517.72;10531798;28;20052;-69
2021/12/03 03:03:42;;;;;;;33.58;20.25;;;;;;;-0.05;67.25;99508.72;10517102;28;20080;-69
2021/12/03 03:08:44;;;;;;;22.50;16.17;;;;;;;-0.17;67.34;99499.56;10539460;28;20051;-68
2021/12/03 03:13:46;;;;;;;29.63;17.48;;;;;;;-0.15;67.24;99496.94;10529485;28;20093;-69
2021/12/03 03:18:48;;;;;;;19.38;14.30;;;;;;;0.01;67.35;99503.41;10557902;28;20079;-69
2021/12/03 03:23:52;;;;;;;30.00;18.98;;;;;;;0.15;66.82;99498.78;10561405;28;20047;-69
2021/12/03 03:28:57;;;;;;;28.15;16.30;;;;;;;0.17;67.05;99497.88;10552568;28;20055;-69
2021/12/03 03:33:59;;;;;;;22.13;14.90;;;;;;;0.28;66.69;99513.03;10533214;28;20054;-69
2021/12/03 03:39:03;;;;;;;28.25;16.38;;;;;;;0.19;66.48;99524.38;10563325;28;20058;-69
2021/12/03 03:44:05;;;;;;;22.23;14.57;;;;;;;0.24;66.48;99532.00;10564267;28;20046;-69
2021/12/03 03:49:07;;;;;;;19.63;13.80;;;;;;;0.26;66.59;99531.06;10564321;28;20688;-69
2021/12/03 03:54:09;;;;;;;18.42;14.23;;;;;;;0.37;66.32;99536.78;10542556;28;20515;-69
2021/12/03 03:59:11;;;;;;;24.05;14.77;;;;;;;0.44;66.43;99540.06;10552355;28;20039;-68
2021/12/03 04:04:13;;;;;;;22.20;15.70;;;;;;;0.54;66.21;99544.09;10536126;27;20043;-69
2021/12/03 04:09:14;;;;;;;20.80;13.80;;;;;;;0.49;66.06;99538.19;10543758;28;20050;-69
2021/12/03 04:14:16;;;;;;;20.55;14.60;;;;;;;0.45;66.13;99529.72;10529362;28;20140;-69
2021/12/03 04:19:18;;;;;;;23.40;14.02;;;;;;;0.34;66.09;99531.72;10529982;28;20044;-68
2021/12/03 04:24:21;;;;;;;21.40;13.38;;;;;;;0.10;66.30;99534.03;10541416;28;20136;-69
2021/12/03 04:29:23;;;;;;;20.42;13.68;;;;;;;-0.18;66.61;99527.84;10538925;28;20058;-69
2021/12/03 04:34:25;;;;;;;20.27;13.80;;;;;;;-0.32;67.10;99518.75;10513835;28;20052;-69
2021/12/03 04:39:27;;;;;;;20.27;14.55;;;;;;;-0.44;67.01;99516.44;10494953;28;20048;-69
2021/12/03 04:44:28;;;;;;;20.52;13.75;;;;;;;-0.65;67.43;99524.59;10551371;28;20511;-69
2021/12/03 04:49:30;;;;;;;22.00;13.95;;;;;;;-0.63;68.12;99519.44;10553385;28;20438;-68
2021/12/03 04:54:32;;;;;;;19.45;12.48;;;;;;;-0.47;67.90;99516.50;10525362;28;20143;-69
2021/12/03 04:59:34;;;;;;;20.80;13.27;;;;;;;-0.24;67.58;99520.28;10536709;28;20106;-69
2021/12/03 05:04:38;;;;;;;18.55;12.35;;;;;;;-0.04;67.34;99516.38;10555051;28;20047;-69
2021/12/03 05:09:39;;;;;;;19.13;11.73;;;;;;;0.07;67.10;99516.97;10532811;28;20054;-69
2021/12/03 05:14:41;;;;;;;16.65;12.02;;;;;;;0.18;66.93;99520.09;10513149;28;20092;-69
2021/12/03 05:19:43;;;;;;;17.10;12.00;;;;;;;0.25;66.69;99518.25;10535739;28;20201;-69
2021/12/03 05:24:45;;;;;;;71.55;39.13;;;;;;;0.30;66.47;99511.28;10532617;27;20108;-69
2021/12/03 05:29:49;;;;;;;42.28;27.35;;;;;;;0.40;66.35;99516.13;10527034;28;20128;-69
2021/12/03 05:34:50;;;;;;;20.05;13.60;;;;;;;0.43;66.25;99510.06;10531924;28;20048;-69
2021/12/03 05:39:52;;;;;;;18.80;11.55;;;;;;;0.46;66.28;99512.56;10530886;28;20048;-69
2021/12/03 05:44:54;;;;;;;15.55;10.50;;;;;;;0.43;66.27;99512.63;10530805;28;20703;-69
2021/12/03 05:49:56;;;;;;;19.50;11.38;;;;;;;0.47;66.11;99522.81;10521966;28;20555;-68
2021/12/03 05:54:57;;;;;;;23.52;14.45;;;;;;;0.35;66.04;99527.41;10524428;28;20514;-69
2021/12/03 05:59:59;;;;;;;26.95;15.15;;;;;;;0.34;66.19;99538.59;10540325;28;20044;-69
2021/12/03 06:05:01;;;;;;;21.10;14.23;;;;;;;0.35;66.36;99543.69;10538515;28;20570;-68
2021/12/03 06:10:04;;;;;;;17.08;10.52;;;;;;;0.29;66.12;99541.28;10548830;28;20134;-69
2021/12/03 06:15:07;;;;;;;20.63;11.07;;;;;;;0.20;66.26;99544.06;10521890;28;20063;-68
2021/12/03 06:20:09;;;;;;;19.58;12.38;;;;;;;0.08;66.39;99540.94;10538028;28;20138;-69
2021/12/03 06:25:13;;;;;;;24.10;14.85;;;;;;;-0.06;66.52;99550.69;10546691;28;20142;-68
2021/12/03 06:30:18;;;;;;;23.88;13.57;;;;;;;-0.15;66.68;99550.91;10537567;28;20059;-68
2021/12/03 06:35:20;;;;;;;19.75;13.40;;;;;;;-0.14;66.87;99545.75;10536650;28;20091;-69
2021/12/03 06:40:25;;;;;;;21.10;13.10;;;;;;;-0.00;66.84;99560.84;10529658;28;20681;-69
2021/12/03 06:45:27;;;;;;;20.40;12.95;;;;;;;0.16;67.01;99564.78;10539367;28;20491;-69
2021/12/03 06:50:31;;;;;;;22.23;12.48;;;;;;;0.36;66.36;99562.56;10519651;28;20054;-69
2021/12/03 06:55:48;;;;;;;19.70;11.05;;;;;;;0.42;66.36;99570.13;10537603;28;20054;-69
2021/12/03 07:00:53;;;;;;;14.05;9.68;;;;;;;0.64;66.23;99560.13;10527238;28;20500;-69
2021/12/03 07:05:55;;;;;;;18.52;10.45;;;;;;;0.64;66.02;99562.69;10522404;28;20501;-70
2021/12/03 07:10:57;;;;;;;19.13;10.55;;;;;;;0.70;66.00;99554.81;10533447;28;20499;-69
2021/12/03 07:16:00;;;;;;;17.95;11.52;;;;;;;0.77;66.15;99552.03;10542383;28;20374;-70
2021/12/03 07:21:02;;;;;;;17.00;9.80;;;;;;;0.86;65.88;99567.25;10530285;28;20135;-69
2021/12/03 07:26:03;;;;;;;14.60;10.07;;;;;;;0.86;65.90;99564.69;10516596;28;20050;-69
2021/12/03 07:31:05;;;;;;;16.95;9.82;;;;;;;0.94;65.79;99569.63;10527882;28;20073;-69
2021/12/03 07:36:07;;;;;;;18.02;9.75;;;;;;;1.07;65.73;99564.13;10543991;28;20105;-69
2021/12/03 07:41:09;;;;;;;16.42;9.77;;;;;;;1.14;65.72;99569.91;10521393;28;20502;-68
2021/12/03 07:46:11;;;;;;;16.17;9.55;;;;;;;1.21;65.39;99556.84;10515301;28;20048;-69
2021/12/03 07:51:16;;;;;;;17.20;9.23;;;;;;;1.38;65.04;99565.84;10532094;28;20531;-69
2021/12/03 07:56:18;;;;;;;16.58;9.35;;;;;;;1.41;65.31;99565.72;10536790;28;20054;-69
2021/12/03 08:01:20;;;;;;;16.52;9.15;;;;;;;1.49;64.98;99562.06;10530535;28;20161;-69
2021/12/03 08:06:22;;;;;;;13.70;7.78;;;;;;;1.52;65.16;99561.13;10526050;28;20047;-69
2021/12/03 08:11:24;;;;;;;14.27;8.05;;;;;;;1.48;65.12;99567.25;10514977;28;20058;-69
2021/12/03 08:16:25;;;;;;;13.90;7.38;;;;;;;1.53;64.91;99580.84;10553707;28;20058;-69
2021/12/03 08:21:29;;;;;;;12.93;7.45;;;;;;;1.58;64.88;99571.25;10514119;28;20051;-69
2021/12/03 08:26:32;;;;;;;12.93;7.38;;;;;;;1.68;64.74;99572.69;10514027;28;20559;-68
2021/12/03 08:31:34;;;;;;;11.85;7.00;;;;;;;1.78;64.61;99574.09;10525198;28;20040;-68
2021/12/03 08:36:36;;;;;;;14.65;6.68;;;;;;;1.85;64.30;99578.16;10530811;28;20614;-68
2021/12/03 08:41:38;;;;;;;12.93;7.22;;;;;;;1.84;64.57;99563.59;10516716;28;20047;-70
2021/12/03 08:46:39;;;;;;;13.38;6.63;;;;;;;2.02;64.08;99542.41;10513365;28;20506;-71
2021/12/03 08:56:44;;;;;;;11.55;5.50;;;;;;;2.21;63.43;99546.09;10516920;28;20048;-72
2021/12/03 09:01:46;;;;;;;13.65;6.00;;;;;;;2.25;63.35;99541.66;10523832;28;20044;-72
2021/12/03 09:06:49;;;;;;;12.70;5.88;;;;;;;2.43;63.02;99548.81;10536341;28;20059;-72
2021/12/03 09:11:52;;;;;;;10.73;5.28;;;;;;;2.75;62.41;99552.00;10540756;28;20142;-72
2021/12/03 09:17:01;;;;;;;10.07;4.95;;;;;;;2.95;61.98;99553.88;10546971;28;20598;-72
2021/12/03 09:22:03;;;;;;;15.20;5.45;;;;;;;3.04;61.50;99557.00;10539264;28;20080;-72
2021/12/03 09:27:05;;;;;;;9.88;4.88;;;;;;;3.09;61.46;99562.00;10541672;28;20043;-70
2021/12/03 09:32:07;;;;;;;12.38;4.40;;;;;;;3.05;61.08;99560.41;10519024;28;20051;-71
2021/12/03 09:37:09;;;;;;;11.00;4.18;;;;;;;3.01;60.82;99559.69;10508792;28;20047;-71
2021/12/03 09:42:21;;;;;;;8.50;3.60;;;;;;;2.84;60.65;99559.44;10538619;28;20062;-72
2021/12/03 09:47:23;;;;;;;10.40;4.20;;;;;;;2.79;61.15;99569.06;10533517;28;20048;-73
2021/12/03 10:13:23;;;;;;;10.40;3.60;;;;;;;2.93;59.84;99524.69;10536190;28;20054;-70
2021/12/03 10:18:50;;;;;;;6.57;3.47;;;;;;;2.99;59.23;99512.41;10543800;28;20050;-71
2021/12/03 11:17:51;;;;;;;6.90;2.58;;;;;;;3.93;57.38;99479.56;10534371;28;20257;-71
2021/12/03 11:45:22;;;;;;;7.32;3.35;;;;;;;3.92;56.05;99458.03;10383035;28;20049;-71
2021/12/03 12:24:28;;;;;;;7.13;2.53;;;;;;;3.29;54.52;99399.34;10553775;28;20181;-72
2021/12/03 13:12:54;;;;;;;5.45;2.63;;;;;;;3.86;55.79;99350.47;10531957;28;20051;-72
2021/12/03 14:17:05;;;;;;;8.30;3.85;;;;;;;3.63;56.48;99278.16;10547858;28;20052;-71
2021/12/03 14:42:26;;;;;;;9.02;3.30;;;;;;;3.23;57.33;99265.22;10540504;28;20044;-71
2021/12/03 15:09:10;;;;;;;7.30;3.83;;;;;;;3.11;57.68;99247.59;10538401;28;20135;-72
2021/12/03 15:35:28;;;;;;;10.70;5.00;;;;;;;3.01;58.00;99244.56;10556106;28;20510;-71
2021/12/03 16:07:27;;;;;;;9.68;3.30;;;;;;;2.42;59.33;99211.66;10543738;28;20062;-71
2021/12/03 16:44:59;;;;;;;10.15;3.45;;;;;;;2.74;58.80;99168.22;10546994;28;20053;-71
2021/12/03 16:55:09;;;;;;;6.43;3.10;;;;;;;2.80;58.81;99170.53;10531826;28;20043;-71
2021/12/03 17:00:22;;;;;;;9.23;4.05;;;;;;;2.90;58.55;99177.00;10521239;28;20139;-71
2021/12/03 17:16:12;;;;;;;17.50;8.70;;;;;;;2.95;59.54;99136.31;10538025;28;20440;-70
2021/12/03 17:27:33;;;;;;;8.50;4.20;;;;;;;2.84;60.32;99140.25;10529943;28;20047;-71
2021/12/03 17:47:54;;;;;;;10.02;3.78;;;;;;;2.65;60.94;99091.13;10542479;28;20298;-70
2021/12/03 17:53:26;;;;;;;10.43;3.38;;;;;;;2.57;61.23;99088.00;10518841;28;20057;-71
2021/12/03 17:58:43;;;;;;;8.67;3.70;;;;;;;2.56;61.36;99081.16;10538222;28;20051;-71
2021/12/03 18:09:08;;;;;;;7.15;4.10;;;;;;;2.70;60.92;99070.28;10537756;28;20052;-71
2021/12/03 18:14:41;;;;;;;7.50;4.32;;;;;;;2.66;60.91;99072.13;10531898;28;20075;-71
2021/12/03 18:51:33;;;;;;;9.90;4.40;;;;;;;2.67;62.18;99035.09;10534198;28;20052;-71
2021/12/03 18:56:44;;;;;;;10.55;4.75;;;;;;;2.76;62.34;99026.13;10544923;28;20044;-71
2021/12/03 19:01:45;;;;;;;9.00;3.95;;;;;;;2.75;62.01;99014.97;10542635;28;20487;-70
2021/12/03 19:16:56;;;;;;;11.75;4.20;;;;;;;2.74;62.35;98987.47;10529860;27;20057;-70
2021/12/03 19:21:59;;;;;;;12.00;4.38;;;;;;;2.68;62.43;98982.56;10544191;27;20052;-71
2021/12/03 19:27:02;;;;;;;7.50;3.60;;;;;;;2.75;62.41;98983.13;10525467;28;20044;-71
2021/12/03 19:32:05;;;;;;;11.25;4.53;;;;;;;2.77;62.08;98971.00;10536853;28;20057;-71
2021/12/03 19:37:07;;;;;;;8.52;4.32;;;;;;;2.75;61.97;98967.66;10528460;28;20054;-71
2021/12/03 19:42:13;;;;;;;13.45;7.20;;;;;;;2.88;62.13;98954.16;10542563;28;20286;-71
2021/12/03 19:47:15;;;;;;;8.18;3.60;;;;;;;2.88;61.78;98956.72;10532887;28;20135;-70
2021/12/03 19:52:30;;;;;;;7.45;4.30;;;;;;;2.87;61.70;98951.63;10550618;28;20062;-71
2021/12/03 19:57:32;;;;;;;6.00;3.70;;;;;;;3.00;61.55;98948.44;10531374;28;20062;-71
2021/12/03 20:02:34;;;;;;;9.07;3.72;;;;;;;3.04;61.54;98944.81;10534789;28;20048;-71
2021/12/03 20:07:36;;;;;;;9.30;3.80;;;;;;;3.03;61.93;98939.69;10524231;28;20185;-71
2021/12/03 20:12:38;;;;;;;7.38;3.60;;;;;;;3.10;61.52;98941.09;10518772;28;20138;-71
2021/12/03 20:17:49;;;;;;;6.15;3.70;;;;;;;3.15;61.41;98930.56;10549848;28;20411;-71
2021/12/03 20:23:02;;;;;;;;;;;;;;;2.90;61.33;98931.69;10535480;28;20297;-70
2021/12/03 20:28:07;;;;;;;9.27;3.88;;;;;;;3.10;61.29;98917.84;10545613;28;19923;-71
2021/12/03 20:38:14;;;;;;;7.57;3.83;;;;;;;3.10;61.16;98922.19;10540159;28;20048;-71
2021/12/03 21:09:22;;;;;;;7.60;3.30;;;;;;;3.02;61.59;98866.56;10516738;28;20058;-71
2021/12/03 21:14:30;;;;;;;7.22;3.67;;;;;;;3.13;61.55;98860.06;10525249;28;20135;-71
2021/12/03 21:19:58;;;;;;;7.05;3.35;;;;;;;3.18;61.14;98858.09;10550842;28;20071;-71
2021/12/03 21:25:05;;;;;;;5.95;3.50;;;;;;;3.18;61.23;98853.75;10533057;28;20074;-71
2021/12/03 21:45:53;;;;;;;10.00;3.20;;;;;;;3.14;61.06;98810.91;10542176;27;20696;-71
2021/12/03 21:50:55;;;;;;;5.57;3.50;;;;;;;3.18;61.15;98806.41;10547724;28;20054;-71
2021/12/03 21:55:56;;;;;;;8.40;4.40;;;;;;;3.18;61.18;98801.25;10510974;28;20154;-71
2021/12/03 22:00:58;;;;;;;5.88;3.78;;;;;;;3.16;61.30;98784.97;10547055;28;20422;-70
2021/12/03 22:06:01;;;;;;;5.88;3.35;;;;;;;3.15;61.44;98783.31;10542869;28;20067;-70
2021/12/03 22:11:05;;;;;;;7.10;3.58;;;;;;;3.27;61.48;98759.47;10550331;27;20044;-70
2021/12/03 22:16:06;;;;;;;6.28;3.83;;;;;;;3.30;61.46;98761.91;10544802;28;20414;-71
2021/12/03 22:21:08;;;;;;;6.95;3.50;;;;;;;3.30;61.40;98757.56;10550242;28;20052;-71
2021/12/03 22:26:11;;;;;;;5.18;3.15;;;;;;;3.24;61.64;98749.28;10531972;28;20387;-68
2021/12/03 22:31:13;;;;;;;7.70;3.88;;;;;;;3.17;62.21;98766.00;10534033;28;20462;-67
2021/12/03 22:36:15;;;;;;;8.32;3.53;;;;;;;3.32;61.68;98753.16;10532843;28;20050;-68
2021/12/03 22:41:17;;;;;;;5.90;3.60;;;;;;;3.31;61.76;98753.25;10528754;28;20043;-68
2021/12/03 22:46:34;;;;;;;8.88;4.00;;;;;;;3.29;61.97;98737.00;10516194;28;20410;-67
2021/12/03 22:56:53;;;;;;;5.53;3.42;;;;;;;3.36;62.00;98730.59;10528885;28;20126;-68
2021/12/03 23:01:55;;;;;;;6.05;3.50;;;;;;;3.46;62.04;98708.53;10510771;28;20139;-68
2021/12/03 23:06:58;;;;;;;5.75;3.72;;;;;;;3.26;62.40;98717.28;10520740;28;20051;-68
2021/12/03 23:12:02;;;;;;;9.20;4.22;;;;;;;3.29;62.70;98713.72;10536147;28;20619;-68
2021/12/03 23:17:04;;;;;;;7.18;4.03;;;;;;;3.24;62.76;98711.38;10542182;28;20533;-68
2021/12/03 23:22:05;;;;;;;7.53;4.28;;;;;;;3.35;62.72;98692.75;10543291;28;20064;-68
2021/12/03 23:27:07;;;;;;;6.90;3.80;;;;;;;3.23;62.99;98681.28;10528768;28;20050;-67
2021/12/03 23:32:09;;;;;;;7.45;3.88;;;;;;;3.28;62.76;98663.78;10532740;28;20919;-68
2021/12/03 23:37:11;;;;;;;8.73;5.00;;;;;;;3.40;62.58;98652.84;10529751;28;20609;-67
2021/12/03 23:42:13;;;;;;;6.55;3.88;;;;;;;3.39;62.80;98642.59;10531953;28;20130;-68
2021/12/03 23:47:15;;;;;;;11.65;6.47;;;;;;;3.46;62.63;98641.34;10544821;28;20079;-68
2021/12/03 23:52:17;;;;;;;18.00;8.75;;;;;;;3.45;62.67;98630.19;10530737;28;20412;-68
2021/12/03 23:57:19;;;;;;;9.52;5.30;;;;;;;3.45;62.56;98629.34;10534671;28;20490;-68
